Time;durP1;ratioP1;P1;durP2;ratioP2;P2;SDS_P1;SDS_P2;PMS_P1;PMS_P2;Temp;Humidity;BMP_temperature;BMP_pressure;BME280_temperature;BME280_humidity;BME280_pressure;Samples;Min_cycle;Max_cycle;Signal;HPM_P1;HPM_P2
2022/12/31 00:01:35;;;;;;;3.47;2.75;;;11.50;99.90;;;;;;5072139;28;20119;-69
2022/12/31 00:04:00;;;;;;;3.97;2.97;;;11.50;99.90;;;;;;5071838;28;20174;-69
2022/12/31 00:06:31;;;;;;;4.70;3.10;;;11.60;99.90;;;;;;5071814;28;20158;-69
2022/12/31 00:08:59;;;;;;;5.40;3.20;;;11.60;99.90;;;;;;5072264;28;20051;-69
2022/12/31 00:11:27;;;;;;;5.38;3.03;;;11.70;99.90;;;;;;5071696;28;20060;-69
2022/12/31 00:13:53;;;;;;;4.18;3.10;;;11.60;99.90;;;;;;5072628;28;20033;-69
2022/12/31 00:16:22;;;;;;;4.00;2.60;;;11.50;99.90;;;;;;5071698;28;20024;-69
2022/12/31 00:18:50;;;;;;;4.03;2.40;;;11.50;99.90;;;;;;5072632;28;20029;-69
2022/12/31 00:21:17;;;;;;;3.65;2.50;;;11.60;99.90;;;;;;5073456;28;20387;-69
2022/12/31 00:23:43;;;;;;;2.55;2.25;;;11.60;99.90;;;;;;5071893;28;20025;-69
2022/12/31 00:26:12;;;;;;;4.25;2.33;;;11.70;99.90;;;;;;5072926;28;20024;-69
2022/12/31 00:28:38;;;;;;;3.10;2.00;;;11.80;99.90;;;;;;5071887;28;20060;-69
2022/12/31 00:31:06;;;;;;;2.55;1.60;;;11.80;99.90;;;;;;5072317;28;20028;-69
2022/12/31 00:33:32;;;;;;;2.47;1.42;;;11.90;99.90;;;;;;5072532;28;20407;-69
2022/12/31 00:36:15;;;;;;;1.40;1.30;;;11.90;99.90;;;;;;5071532;28;20021;-69
2022/12/31 00:38:44;;;;;;;1.30;1.00;;;11.90;99.90;;;;;;5076629;28;20037;-69
2022/12/31 00:41:10;;;;;;;1.05;0.93;;;11.90;99.90;;;;;;5075682;28;20059;-69
2022/12/31 00:43:36;;;;;;;1.63;0.70;;;12.10;99.90;;;;;;5075473;28;20491;-69
2022/12/31 00:46:02;;;;;;;3.65;0.90;;;12.10;99.90;;;;;;5076687;28;20031;-69
2022/12/31 00:48:28;;;;;;;0.35;0.25;;;12.20;99.90;;;;;;5076205;28;20085;-69
2022/12/31 00:50:55;;;;;;;0.35;0.35;;;12.20;99.90;;;;;;5075252;28;20032;-69
2022/12/31 00:53:21;;;;;;;0.30;0.20;;;12.30;99.90;;;;;;5075258;28;20024;-69
2022/12/31 00:55:47;;;;;;;0.20;0.20;;;12.40;99.90;;;;;;5075717;28;20025;-69
2022/12/31 00:58:12;;;;;;;0.22;0.20;;;12.50;99.90;;;;;;5075465;28;20031;-69
2022/12/31 01:00:38;;;;;;;0.30;0.30;;;12.60;99.90;;;;;;5074950;28;20033;-69
2022/12/31 01:03:04;;;;;;;0.30;0.30;;;12.60;99.90;;;;;;5075435;28;20024;-69
2022/12/31 01:05:32;;;;;;;0.10;0.10;;;12.70;99.90;;;;;;5075880;28;20120;-69
2022/12/31 01:07:58;;;;;;;1.38;0.20;;;12.80;99.90;;;;;;5074948;28;20028;-69
2022/12/31 01:13:08;;;;;;;0.20;0.20;;;12.90;99.90;;;;;;5076599;28;20028;-69
2022/12/31 01:15:36;;;;;;;0.35;0.13;;;12.90;99.90;;;;;;5074786;28;20020;-69
2022/12/31 01:18:03;;;;;;;0.28;0.28;;;12.90;99.90;;;;;;5076118;28;20059;-69
2022/12/31 01:20:29;;;;;;;0.17;0.17;;;12.90;99.90;;;;;;5074942;28;20086;-69
2022/12/31 01:22:55;;;;;;;0.30;0.30;;;12.90;99.90;;;;;;5074757;28;20025;-69
2022/12/31 01:25:20;;;;;;;0.20;0.20;;;13.00;99.90;;;;;;5075942;28;20078;-69
2022/12/31 01:27:46;;;;;;;0.90;0.30;;;13.10;99.90;;;;;;5076472;28;20021;-69
2022/12/31 01:30:12;;;;;;;1.45;0.22;;;13.10;99.90;;;;;;5074381;28;20029;-69
2022/12/31 01:32:37;;;;;;;0.17;0.17;;;13.20;99.90;;;;;;5075702;28;20077;-69
2022/12/31 01:35:03;;;;;;;0.20;0.20;;;13.30;99.90;;;;;;5074507;28;20081;-69
2022/12/31 01:37:28;;;;;;;0.20;0.20;;;13.30;99.90;;;;;;5075738;28;20021;-69
2022/12/31 01:39:54;;;;;;;0.40;0.22;;;13.30;99.90;;;;;;5074755;28;20024;-69
2022/12/31 01:42:19;;;;;;;0.20;0.20;;;13.40;99.90;;;;;;5074446;28;20044;-69
2022/12/31 01:44:49;;;;;;;0.20;0.20;;;13.50;99.90;;;;;;5074366;28;20021;-69
2022/12/31 01:47:19;;;;;;;0.38;0.30;;;13.50;99.90;;;;;;5074552;28;20048;-69
2022/12/31 01:49:57;;;;;;;0.77;0.22;;;13.60;99.90;;;;;;5073228;28;20021;-69
2022/12/31 01:52:26;;;;;;;1.75;0.35;;;13.60;99.90;;;;;;5075060;28;20074;-69
2022/12/31 01:54:56;;;;;;;1.10;0.22;;;13.60;99.90;;;;;;5075756;28;20021;-69
2022/12/31 01:57:24;;;;;;;0.25;0.25;;;13.60;99.90;;;;;;5074217;28;20016;-68
2022/12/31 01:59:51;;;;;;;0.10;0.10;;;13.60;99.90;;;;;;5075226;28;20040;-67
2022/12/31 02:02:16;;;;;;;0.30;0.30;;;13.70;99.90;;;;;;5074191;28;20078;-67
2022/12/31 02:04:42;;;;;;;1.30;0.10;;;13.70;99.90;;;;;;5075388;28;20033;-67
2022/12/31 02:07:10;;;;;;;1.15;0.88;;;13.70;99.90;;;;;;5075025;28;20020;-67
2022/12/31 02:09:38;;;;;;;0.17;0.17;;;13.80;99.90;;;;;;5074710;28;20056;-68
2022/12/31 02:12:04;;;;;;;0.20;0.10;;;13.80;99.90;;;;;;5073888;28;20070;-68
2022/12/31 02:14:40;;;;;;;0.10;0.10;;;13.90;99.90;;;;;;5073856;28;20031;-69
2022/12/31 02:17:37;;;;;;;0.30;0.10;;;13.90;99.90;;;;;;5074968;28;20016;-72
2022/12/31 02:20:20;;;;;;;0.45;0.00;;;13.90;99.90;;;;;;5074043;28;20115;-71
2022/12/31 02:23:04;;;;;;;0.60;0.10;;;13.90;99.90;;;;;;5074174;28;20021;-71
2022/12/31 02:25:36;;;;;;;0.10;0.10;;;14.00;99.90;;;;;;5073886;28;20047;-71
2022/12/31 02:28:19;;;;;;;0.10;0.10;;;14.00;99.90;;;;;;5073659;28;20025;-69
2022/12/31 02:30:49;;;;;;;0.17;0.00;;;14.00;99.90;;;;;;5073485;28;20111;-69
2022/12/31 02:33:22;;;;;;;0.00;0.00;;;14.00;99.90;;;;;;5074344;28;20031;-69
2022/12/31 02:35:56;;;;;;;0.20;0.10;;;14.10;99.90;;;;;;5073484;28;20051;-70
2022/12/31 02:38:26;;;;;;;0.90;0.10;;;14.10;99.90;;;;;;5074275;28;20043;-70
2022/12/31 02:40:53;;;;;;;0.15;0.10;;;14.20;99.90;;;;;;5073469;28;20031;-70
2022/12/31 02:43:18;;;;;;;0.17;0.15;;;14.20;99.90;;;;;;5073644;28;20039;-69
2022/12/31 02:45:49;;;;;;;0.03;0.00;;;14.30;99.90;;;;;;5073126;28;20021;-69
2022/12/31 02:48:44;;;;;;;0.00;0.00;;;14.30;99.90;;;;;;5074685;28;20024;-67
2022/12/31 02:51:38;;;;;;;0.10;0.08;;;14.30;99.90;;;;;;5074281;28;20028;-68
2022/12/31 02:54:04;;;;;;;0.05;0.00;;;14.30;99.90;;;;;;5067559;28;20033;-68
2022/12/31 02:56:58;;;;;;;0.20;0.10;;;14.30;99.90;;;;;;5073233;28;20020;-68
2022/12/31 03:03:01;;;;;;;0.10;0.00;;;14.30;99.90;;;;;;5074401;28;20028;-69
2022/12/31 03:05:32;;;;;;;0.08;0.08;;;14.30;99.90;;;;;;5073674;28;20025;-70
2022/12/31 03:07:57;;;;;;;5.95;0.30;;;14.40;99.90;;;;;;5074192;28;20048;-68
2022/12/31 03:10:23;;;;;;;0.10;0.10;;;14.40;99.90;;;;;;5073033;28;20016;-68
2022/12/31 03:12:50;;;;;;;0.10;0.08;;;14.40;99.90;;;;;;5073924;28;20107;-68
2022/12/31 03:15:23;;;;;;;0.82;0.17;;;14.40;99.90;;;;;;5073860;28;20066;-68
2022/12/31 03:17:59;;;;;;;0.22;0.08;;;14.50;99.90;;;;;;5072629;28;20051;-68
2022/12/31 03:23:38;;;;;;;0.00;0.00;;;14.50;99.90;;;;;;5074429;28;20078;-68
2022/12/31 03:26:09;;;;;;;0.10;0.00;;;14.60;99.90;;;;;;5072126;28;20039;-68
2022/12/31 03:28:35;;;;;;;0.22;0.10;;;14.60;99.90;;;;;;5073457;28;20024;-68
2022/12/31 03:31:01;;;;;;;0.40;0.10;;;14.70;99.90;;;;;;5073507;28;20033;-68
2022/12/31 03:33:38;;;;;;;0.00;0.00;;;14.70;99.90;;;;;;5072376;28;20020;-68
2022/12/31 03:36:12;;;;;;;0.17;0.17;;;14.70;99.90;;;;;;5072418;28;20048;-68
2022/12/31 03:38:38;;;;;;;1.13;0.10;;;14.70;99.90;;;;;;5073637;28;20035;-69
2022/12/31 03:41:04;;;;;;;0.52;0.00;;;14.70;99.90;;;;;;5071836;28;20029;-68
2022/12/31 03:43:29;;;;;;;0.25;0.25;;;14.80;99.90;;;;;;5072180;28;20032;-68
2022/12/31 03:45:58;;;;;;;0.25;0.08;;;14.80;99.90;;;;;;5072251;28;20031;-68
2022/12/31 03:48:24;;;;;;;0.13;0.10;;;14.80;99.90;;;;;;5072170;28;20035;-68
2022/12/31 03:50:50;;;;;;;0.45;0.10;;;14.90;99.90;;;;;;5072502;28;20025;-68
2022/12/31 03:53:16;;;;;;;0.00;0.00;;;14.90;99.90;;;;;;5072047;28;20016;-68
2022/12/31 03:55:41;;;;;;;0.25;0.10;;;15.00;99.90;;;;;;5072017;28;20044;-68
2022/12/31 03:58:07;;;;;;;1.65;0.17;;;15.00;99.90;;;;;;5071986;28;20056;-68
2022/12/31 04:00:33;;;;;;;0.25;0.00;;;15.00;99.90;;;;;;5073053;28;20052;-68
2022/12/31 04:02:58;;;;;;;0.17;0.10;;;15.00;99.90;;;;;;5072101;28;20033;-69
2022/12/31 04:05:24;;;;;;;0.20;0.10;;;15.00;99.90;;;;;;5071902;28;20043;-68
2022/12/31 04:07:51;;;;;;;0.10;0.10;;;15.00;99.90;;;;;;5071758;28;20048;-68
2022/12/31 04:10:18;;;;;;;0.22;0.03;;;14.90;99.90;;;;;;5073194;28;20107;-68
2022/12/31 04:12:44;;;;;;;0.43;0.10;;;14.90;99.90;;;;;;5072432;28;20021;-68
2022/12/31 04:15:14;;;;;;;2.45;0.22;;;14.80;99.90;;;;;;5072876;28;20031;-68
2022/12/31 04:17:39;;;;;;;0.10;0.10;;;14.70;99.90;;;;;;5072514;28;20119;-68
2022/12/31 04:20:05;;;;;;;0.20;0.20;;;14.60;99.90;;;;;;5071573;28;20124;-68
2022/12/31 04:22:31;;;;;;;0.00;0.00;;;14.50;99.90;;;;;;5071615;28;20025;-68
2022/12/31 04:24:56;;;;;;;0.20;0.10;;;14.50;99.90;;;;;;5071966;28;20020;-69
2022/12/31 04:27:22;;;;;;;0.73;0.73;;;14.40;99.90;;;;;;5072449;28;20468;-69
2022/12/31 04:29:47;;;;;;;1.55;0.20;;;14.40;99.90;;;;;;5071364;28;20061;-68
2022/12/31 04:32:13;;;;;;;1.10;0.13;;;14.40;99.90;;;;;;5071926;28;20031;-68
2022/12/31 04:34:38;;;;;;;0.30;0.30;;;14.40;99.90;;;;;;5072622;28;20029;-68
2022/12/31 04:37:04;;;;;;;0.73;0.20;;;14.40;99.90;;;;;;5072612;28;20017;-68
2022/12/31 04:39:30;;;;;;;0.65;0.35;;;14.30;99.90;;;;;;5072496;28;20028;-68
2022/12/31 04:41:56;;;;;;;0.45;0.28;;;14.40;99.90;;;;;;5072289;28;20020;-69
2022/12/31 04:44:21;;;;;;;0.13;0.13;;;14.40;99.90;;;;;;5071667;28;20027;-68
2022/12/31 04:46:47;;;;;;;0.75;0.30;;;14.40;99.90;;;;;;5071491;28;20024;-68
2022/12/31 04:49:13;;;;;;;0.47;0.30;;;14.40;99.90;;;;;;5072176;28;20028;-68
2022/12/31 04:51:38;;;;;;;2.17;0.30;;;14.50;99.90;;;;;;5072054;28;20016;-68
2022/12/31 04:54:04;;;;;;;0.40;0.20;;;14.50;99.90;;;;;;5071666;28;20027;-68
2022/12/31 04:56:31;;;;;;;2.65;0.47;;;14.50;99.90;;;;;;5072631;28;20403;-68
2022/12/31 04:58:56;;;;;;;3.08;0.40;;;14.50;99.90;;;;;;5071606;28;20032;-68
2022/12/31 05:01:22;;;;;;;0.60;0.20;;;14.50;99.90;;;;;;5072516;28;20024;-68
2022/12/31 05:03:48;;;;;;;0.20;0.20;;;14.50;99.90;;;;;;5071294;28;20120;-68
2022/12/31 05:06:19;;;;;;;0.57;0.30;;;14.60;99.90;;;;;;5072048;28;20035;-68
2022/12/31 05:08:44;;;;;;;0.40;0.35;;;14.60;99.90;;;;;;5072429;28;20025;-68
2022/12/31 05:11:10;;;;;;;1.10;0.45;;;14.60;99.90;;;;;;5072638;28;20023;-68
2022/12/31 05:13:35;;;;;;;0.40;0.30;;;14.70;99.90;;;;;;5072939;28;20081;-70
2022/12/31 05:16:02;;;;;;;3.22;0.35;;;14.70;99.90;;;;;;5071429;28;20043;-70
2022/12/31 05:18:28;;;;;;;3.40;0.63;;;14.70;99.90;;;;;;5071738;28;20055;-70
2022/12/31 05:20:53;;;;;;;0.45;0.30;;;14.70;99.90;;;;;;5071456;28;20051;-69
2022/12/31 05:23:19;;;;;;;0.75;0.20;;;14.80;99.90;;;;;;5072524;28;20388;-69
2022/12/31 05:25:46;;;;;;;0.63;0.20;;;14.80;99.90;;;;;;5075653;28;20033;-69
2022/12/31 05:28:12;;;;;;;0.60;0.22;;;14.90;99.90;;;;;;5074404;28;20066;-69
2022/12/31 05:30:38;;;;;;;1.38;0.28;;;14.90;99.90;;;;;;5075260;28;20051;-69
2022/12/31 05:33:03;;;;;;;1.25;0.20;;;15.00;99.90;;;;;;5074449;28;20048;-69
2022/12/31 05:35:29;;;;;;;2.45;0.38;;;15.00;99.90;;;;;;5074358;28;20150;-70
2022/12/31 05:37:55;;;;;;;0.30;0.30;;;15.00;99.90;;;;;;5074350;28;20048;-70
2022/12/31 05:40:20;;;;;;;0.98;0.38;;;15.00;99.90;;;;;;5074292;28;20035;-70
2022/12/31 05:42:46;;;;;;;1.85;0.30;;;15.10;99.90;;;;;;5074295;28;20033;-70
2022/12/31 05:45:12;;;;;;;2.40;0.38;;;15.10;99.90;;;;;;5074338;28;20112;-70
2022/12/31 05:47:39;;;;;;;0.98;0.30;;;15.10;99.90;;;;;;5075051;28;20090;-70
2022/12/31 05:50:09;;;;;;;2.58;0.50;;;15.10;99.90;;;;;;5074106;28;20025;-70
2022/12/31 05:52:35;;;;;;;0.43;0.30;;;15.10;99.90;;;;;;5074521;28;20025;-70
2022/12/31 05:55:00;;;;;;;0.50;0.32;;;15.10;99.90;;;;;;5075147;28;20039;-70
2022/12/31 05:57:26;;;;;;;2.28;0.25;;;15.10;99.90;;;;;;5076345;28;20016;-70
2022/12/31 05:59:52;;;;;;;0.77;0.40;;;15.20;99.90;;;;;;5074766;28;20051;-70
2022/12/31 06:02:19;;;;;;;1.55;0.55;;;15.20;99.90;;;;;;5073982;28;20115;-70
2022/12/31 06:04:44;;;;;;;0.43;0.35;;;15.20;99.90;;;;;;5074809;28;20111;-70
2022/12/31 06:07:10;;;;;;;0.93;0.30;;;15.20;99.90;;;;;;5073831;28;20111;-70
2022/12/31 06:09:35;;;;;;;0.40;0.20;;;15.20;99.90;;;;;;5074000;28;20037;-69
2022/12/31 06:12:01;;;;;;;1.65;0.30;;;15.20;99.90;;;;;;5074452;28;20035;-70
2022/12/31 06:14:26;;;;;;;0.45;0.30;;;15.20;99.90;;;;;;5073753;28;20093;-70
2022/12/31 06:16:52;;;;;;;1.40;0.55;;;15.30;99.90;;;;;;5075217;28;20025;-70
2022/12/31 06:19:17;;;;;;;0.73;0.30;;;15.30;99.90;;;;;;5074432;28;20098;-70
2022/12/31 06:21:43;;;;;;;0.65;0.40;;;15.30;99.90;;;;;;5073765;28;20086;-70
2022/12/31 06:24:08;;;;;;;0.40;0.20;;;15.30;99.90;;;;;;5073652;28;20024;-70
2022/12/31 06:26:35;;;;;;;0.98;0.40;;;15.30;99.90;;;;;;5073532;28;20025;-70
2022/12/31 06:29:00;;;;;;;2.45;0.40;;;15.30;99.90;;;;;;5073358;28;20483;-70
2022/12/31 06:31:26;;;;;;;0.57;0.45;;;15.40;99.90;;;;;;5073757;28;20020;-70
2022/12/31 06:33:51;;;;;;;0.40;0.30;;;15.40;99.90;;;;;;5073365;28;20024;-70
2022/12/31 06:36:17;;;;;;;0.30;0.22;;;15.40;99.90;;;;;;5073769;28;20025;-70
2022/12/31 06:38:43;;;;;;;0.52;0.28;;;15.40;99.90;;;;;;5073330;28;20025;-70
2022/12/31 06:41:12;;;;;;;1.67;0.32;;;15.40;99.90;;;;;;5073456;28;20024;-70
2022/12/31 06:43:39;;;;;;;0.95;0.32;;;15.40;99.90;;;;;;5073219;28;20094;-70
2022/12/31 06:46:07;;;;;;;0.63;0.32;;;15.40;99.90;;;;;;5074635;28;20080;-70
2022/12/31 06:48:33;;;;;;;2.92;0.57;;;15.40;99.90;;;;;;5073359;28;20063;-70
2022/12/31 06:51:06;;;;;;;0.40;0.30;;;15.40;99.90;;;;;;5074640;28;20048;-70
2022/12/31 06:53:33;;;;;;;3.28;0.40;;;15.40;99.90;;;;;;5073245;28;20025;-70
2022/12/31 06:56:05;;;;;;;0.70;0.40;;;15.50;99.90;;;;;;5073975;28;20048;-69
2022/12/31 06:58:31;;;;;;;0.65;0.32;;;15.50;99.90;;;;;;5072946;28;20115;-68
2022/12/31 07:01:04;;;;;;;1.63;0.60;;;15.60;99.90;;;;;;5074312;28;20059;-68
2022/12/31 07:04:07;;;;;;;2.20;0.38;;;15.60;99.90;;;;;;5072825;28;20115;-68
2022/12/31 07:06:42;;;;;;;4.82;0.50;;;15.60;99.90;;;;;;5072687;28;20047;-68
2022/12/31 07:09:19;;;;;;;1.02;0.52;;;15.60;99.90;;;;;;5072497;28;20029;-68
2022/12/31 07:12:25;;;;;;;1.30;0.60;;;15.60;99.90;;;;;;5072607;28;20024;-68
2022/12/31 07:14:56;;;;;;;1.17;0.55;;;15.60;99.90;;;;;;5074145;28;20027;-68
2022/12/31 07:17:32;;;;;;;2.47;0.30;;;15.50;99.90;;;;;;5072437;28;20024;-68
2022/12/31 07:20:07;;;;;;;1.92;0.50;;;15.60;99.90;;;;;;5073538;28;20403;-68
2022/12/31 07:22:33;;;;;;;5.28;0.47;;;15.60;99.90;;;;;;5072341;28;20552;-68
2022/12/31 07:24:59;;;;;;;2.13;0.40;;;15.70;99.90;;;;;;5072317;28;20119;-68
2022/12/31 07:27:37;;;;;;;2.45;0.50;;;15.70;99.90;;;;;;5072704;28;20101;-68
2022/12/31 07:30:09;;;;;;;0.98;0.40;;;15.70;99.90;;;;;;5072167;28;20029;-68
2022/12/31 07:32:56;;;;;;;0.30;0.30;;;15.80;99.90;;;;;;5072362;28;20025;-68
2022/12/31 07:36:04;;;;;;;0.98;0.40;;;15.80;99.90;;;;;;5072987;28;20039;-68
2022/12/31 07:38:47;;;;;;;0.60;0.38;;;15.80;99.90;;;;;;5014908;28;20025;-68
2022/12/31 07:41:49;;;;;;;2.83;0.45;;;15.80;99.90;;;;;;5015049;28;20037;-68
2022/12/31 07:44:22;;;;;;;;;;;15.90;99.90;;;;;;5031871;28;20040;-68
2022/12/31 07:46:59;;;;;;;0.95;0.30;;;15.90;99.90;;;;;;5014236;28;19988;-68
2022/12/31 07:49:27;;;;;;;1.83;0.52;;;15.90;99.90;;;;;;5014651;28;20116;-68
2022/12/31 07:51:53;;;;;;;2.40;0.60;;;15.90;99.90;;;;;;5015240;28;20026;-68
2022/12/31 07:54:19;;;;;;;3.72;0.93;;;15.90;99.90;;;;;;5031225;28;20048;-68
2022/12/31 07:56:45;;;;;;;1.55;0.65;;;15.90;99.90;;;;;;5014779;28;20060;-69
2022/12/31 07:59:34;;;;;;;3.33;0.63;;;15.90;99.90;;;;;;5014569;28;20144;-69
2022/12/31 08:02:22;;;;;;;1.15;0.73;;;16.00;99.90;;;;;;5031390;28;20030;-69
2022/12/31 08:04:55;;;;;;;1.77;0.40;;;16.10;99.90;;;;;;5014691;28;20116;-70
2022/12/31 08:07:41;;;;;;;2.45;0.65;;;16.10;99.90;;;;;;5014559;28;20033;-70
2022/12/31 08:10:18;;;;;;;2.47;0.40;;;16.10;99.90;;;;;;5014978;28;20030;-70
2022/12/31 08:12:48;;;;;;;5.30;0.55;;;16.10;99.90;;;;;;5051025;28;20115;-70
2022/12/31 08:15:16;;;;;;;2.55;0.60;;;16.20;99.90;;;;;;5072105;28;20024;-70
2022/12/31 08:17:41;;;;;;;2.90;0.40;;;16.20;99.90;;;;;;5071717;28;20021;-70
2022/12/31 08:20:15;;;;;;;1.55;0.30;;;16.20;99.90;;;;;;5072983;28;20055;-70
2022/12/31 08:23:08;;;;;;;0.70;0.40;;;16.20;99.90;;;;;;5071974;28;20490;-70
2022/12/31 08:26:03;;;;;;;0.82;0.43;;;16.30;99.90;;;;;;5053864;28;20037;-70
2022/12/31 08:28:49;;;;;;;1.25;0.40;;;16.30;99.90;;;;;;5073168;28;20024;-70
2022/12/31 08:31:25;;;;;;;1.10;0.38;;;16.20;99.90;;;;;;5072199;28;20108;-70
2022/12/31 08:34:09;;;;;;;1.38;0.40;;;16.30;99.90;;;;;;5071949;28;20056;-70
2022/12/31 08:36:37;;;;;;;1.80;0.50;;;16.30;99.90;;;;;;5073088;28;20051;-70
2022/12/31 08:39:37;;;;;;;0.80;0.35;;;16.30;99.90;;;;;;5072142;28;20025;-70
2022/12/31 08:42:10;;;;;;;5.15;0.57;;;16.20;99.90;;;;;;5071527;28;20028;-70
2022/12/31 08:44:49;;;;;;;6.72;0.77;;;16.30;99.90;;;;;;5071493;28;20024;-70
2022/12/31 08:47:37;;;;;;;1.90;0.38;;;16.40;99.90;;;;;;5072430;28;20115;-70
2022/12/31 08:50:03;;;;;;;0.50;0.50;;;16.40;99.90;;;;;;5072148;28;20074;-70
2022/12/31 08:52:29;;;;;;;2.53;0.50;;;16.40;99.90;;;;;;5071920;28;20032;-70
2022/12/31 08:54:55;;;;;;;0.93;0.50;;;16.40;99.90;;;;;;5072952;28;20017;-70
2022/12/31 08:57:43;;;;;;;0.55;0.40;;;16.40;99.90;;;;;;5071354;28;20020;-70
2022/12/31 09:00:17;;;;;;;1.17;0.47;;;16.40;99.90;;;;;;5075205;28;20024;-70
2022/12/31 09:03:04;;;;;;;0.73;0.47;;;16.40;99.90;;;;;;5075251;28;20033;-70
2022/12/31 09:05:51;;;;;;;0.35;0.20;;;16.40;99.90;;;;;;5075889;28;20032;-70
2022/12/31 09:08:40;;;;;;;1.85;0.50;;;16.40;99.90;;;;;;5076169;28;20491;-70
2022/12/31 09:11:12;;;;;;;0.60;0.30;;;16.40;99.90;;;;;;5066973;28;20032;-70
2022/12/31 09:13:56;;;;;;;;;;;16.40;99.90;;;;;;5075590;28;20499;-70
2022/12/31 09:17:08;;;;;;;4.75;0.50;;;16.40;99.90;;;;;;5075088;28;19912;-70
2022/12/31 09:19:33;;;;;;;2.13;0.50;;;16.40;99.90;;;;;;5041439;28;20052;-70
2022/12/31 09:21:59;;;;;;;2.30;0.63;;;16.30;99.90;;;;;;5075304;28;20052;-70
2022/12/31 09:24:25;;;;;;;3.92;0.57;;;16.30;99.90;;;;;;5074674;28;20016;-70
2022/12/31 09:27:04;;;;;;;1.88;0.32;;;16.40;99.90;;;;;;5074928;28;20036;-70
2022/12/31 09:30:03;;;;;;;2.08;0.60;;;16.40;99.90;;;;;;5075367;28;20120;-70
2022/12/31 09:32:50;;;;;;;2.38;0.68;;;16.40;99.90;;;;;;5075828;28;20490;-70
2022/12/31 09:35:35;;;;;;;4.40;0.60;;;16.40;99.90;;;;;;5074515;28;20017;-70
2022/12/31 09:38:07;;;;;;;1.23;0.50;;;16.40;99.90;;;;;;5075476;28;20116;-70
2022/12/31 09:40:48;;;;;;;0.73;0.63;;;16.40;99.90;;;;;;5075110;28;20092;-70
2022/12/31 09:43:39;;;;;;;1.02;0.28;;;16.50;99.90;;;;;;5074336;28;20393;-69
2022/12/31 09:46:43;;;;;;;0.70;0.35;;;16.50;99.90;;;;;;5074391;28;20033;-69
2022/12/31 09:49:42;;;;;;;1.33;0.50;;;16.50;99.90;;;;;;5074189;28;20036;-69
2022/12/31 09:52:39;;;;;;;1.83;0.40;;;16.60;99.90;;;;;;5075513;28;20027;-69
2022/12/31 09:55:28;;;;;;;2.00;0.60;;;16.50;99.90;;;;;;5074186;28;20028;-69
2022/12/31 09:58:06;;;;;;;0.40;0.40;;;16.60;99.90;;;;;;5074076;28;20052;-69
2022/12/31 10:00:50;;;;;;;2.13;0.73;;;16.60;99.90;;;;;;5073928;28;20059;-69
2022/12/31 10:03:35;;;;;;;2.28;0.73;;;16.60;99.90;;;;;;5075652;28;20048;-69
2022/12/31 10:06:24;;;;;;;2.42;0.43;;;16.70;99.90;;;;;;5074290;28;20451;-69
2022/12/31 10:09:15;;;;;;;1.60;0.40;;;16.60;99.90;;;;;;5075157;28;20023;-69
2022/12/31 10:12:03;;;;;;;1.85;0.40;;;16.70;99.90;;;;;;5073442;28;20020;-69
2022/12/31 10:14:43;;;;;;;0.80;0.50;;;16.70;99.90;;;;;;5073722;28;20472;-69
2022/12/31 10:17:29;;;;;;;0.90;0.50;;;16.70;99.90;;;;;;5074594;28;20024;-69
2022/12/31 10:20:14;;;;;;;3.03;0.63;;;16.70;99.90;;;;;;5075104;28;20040;-69
2022/12/31 10:22:45;;;;;;;1.73;0.60;;;16.80;99.90;;;;;;5073841;28;20398;-69
2022/12/31 10:25:46;;;;;;;2.72;0.70;;;16.80;99.90;;;;;;5075106;28;20051;-69
2022/12/31 10:28:34;;;;;;;1.17;0.65;;;16.90;99.90;;;;;;5074536;28;20043;-69
2022/12/31 10:31:11;;;;;;;1.23;0.40;;;16.90;99.90;;;;;;5074484;28;20024;-69
2022/12/31 10:34:01;;;;;;;3.53;0.52;;;16.90;99.90;;;;;;5073416;28;20024;-70
2022/12/31 10:36:27;;;;;;;1.35;0.50;;;17.00;99.90;;;;;;5073663;28;20035;-70
2022/12/31 10:39:11;;;;;;;4.68;0.52;;;17.00;99.90;;;;;;5073271;28;20029;-69
2022/12/31 10:42:04;;;;;;;0.75;0.60;;;17.00;99.90;;;;;;5073208;28;20040;-69
2022/12/31 10:44:39;;;;;;;0.80;0.60;;;17.00;99.90;;;;;;5074062;28;20028;-69
2022/12/31 10:47:43;;;;;;;8.98;0.80;;;17.00;99.90;;;;;;5073994;28;20052;-69
2022/12/31 10:50:44;;;;;;;0.98;0.47;;;17.00;99.90;;;;;;5073492;28;20054;-71
2022/12/31 10:53:44;;;;;;;1.75;0.85;;;17.10;99.90;;;;;;5073075;28;20021;-70
2022/12/31 10:56:48;;;;;;;1.52;0.50;;;17.10;99.90;;;;;;5072984;28;20031;-70
2022/12/31 10:59:17;;;;;;;3.08;0.60;;;17.10;99.90;;;;;;5053121;28;20032;-70
2022/12/31 11:01:47;;;;;;;0.55;0.40;;;17.10;99.90;;;;;;5073720;28;20024;-70
2022/12/31 11:04:55;;;;;;;2.67;0.60;;;17.20;99.90;;;;;;5072789;28;20025;-70
2022/12/31 11:07:54;;;;;;;1.90;0.80;;;17.30;99.90;;;;;;5073072;28;20047;-70
2022/12/31 11:10:38;;;;;;;1.10;0.65;;;17.30;99.90;;;;;;5072571;28;20157;-70
2022/12/31 11:13:16;;;;;;;2.70;1.05;;;17.30;99.90;;;;;;5073686;28;20032;-70
2022/12/31 11:16:10;;;;;;;7.47;2.63;;;17.40;99.90;;;;;;5073979;28;20017;-70
2022/12/31 11:18:53;;;;;;;1.88;0.70;;;17.50;99.90;;;;;;5072473;28;20070;-70
2022/12/31 11:21:45;;;;;;;3.35;0.90;;;17.50;99.90;;;;;;5074131;28;20036;-70
2022/12/31 11:24:37;;;;;;;2.28;0.73;;;17.50;99.90;;;;;;5073686;28;20028;-70
2022/12/31 11:27:11;;;;;;;1.27;0.57;;;17.50;99.90;;;;;;5072410;28;20120;-70
2022/12/31 11:29:45;;;;;;;2.30;0.80;;;17.50;99.90;;;;;;5072158;28;20025;-70
2022/12/31 11:32:39;;;;;;;1.33;0.60;;;17.60;99.90;;;;;;5072294;28;20025;-70
2022/12/31 11:35:17;;;;;;;2.47;0.60;;;17.60;99.90;;;;;;5073869;28;20020;-70
2022/12/31 11:38:08;;;;;;;3.05;0.82;;;17.60;99.90;;;;;;5073722;28;20024;-70
2022/12/31 11:40:54;;;;;;;0.80;0.40;;;17.60;99.90;;;;;;5073346;28;20064;-70
2022/12/31 11:43:25;;;;;;;2.00;0.70;;;17.60;99.90;;;;;;5072334;28;20071;-70
2022/12/31 11:46:20;;;;;;;1.92;0.50;;;17.60;99.90;;;;;;5072175;28;20063;-70
2022/12/31 11:49:08;;;;;;;1.35;0.50;;;17.60;99.90;;;;;;5073300;28;20157;-70
2022/12/31 11:51:42;;;;;;;4.63;0.80;;;17.60;99.90;;;;;;5072018;28;20020;-70
2022/12/31 11:54:27;;;;;;;0.73;0.35;;;17.60;99.90;;;;;;5073300;28;20055;-70
2022/12/31 11:57:15;;;;;;;3.15;0.75;;;17.60;99.90;;;;;;5071950;28;20016;-70
2022/12/31 11:59:41;;;;;;;1.42;0.50;;;17.60;99.90;;;;;;5072502;28;20024;-70
2022/12/31 12:02:25;;;;;;;1.17;0.40;;;17.60;99.90;;;;;;5072002;28;20032;-70
2022/12/31 12:04:52;;;;;;;2.83;0.90;;;17.60;99.90;;;;;;5072474;28;20039;-70
2022/12/31 12:07:18;;;;;;;8.23;1.08;;;17.60;99.90;;;;;;5072754;28;20024;-70
2022/12/31 12:09:45;;;;;;;2.70;0.70;;;17.50;99.90;;;;;;5071740;28;20028;-70
2022/12/31 12:12:11;;;;;;;6.68;0.90;;;17.50;99.90;;;;;;5071804;28;20124;-70
2022/12/31 12:14:40;;;;;;;3.00;0.65;;;17.50;99.90;;;;;;5071964;28;20119;-70
2022/12/31 12:17:15;;;;;;;5.00;1.20;;;17.60;99.90;;;;;;5072261;28;20021;-70
2022/12/31 12:19:45;;;;;;;1.70;0.68;;;17.60;99.90;;;;;;5071654;28;20040;-70
2022/12/31 12:22:22;;;;;;;1.90;0.50;;;17.60;99.90;;;;;;5072365;28;20052;-70
2022/12/31 12:24:53;;;;;;;1.80;0.52;;;17.60;99.90;;;;;;5073353;28;20033;-70
2022/12/31 12:27:23;;;;;;;8.27;1.08;;;17.60;99.90;;;;;;5072821;28;20146;-70
2022/12/31 12:29:49;;;;;;;2.92;0.73;;;17.60;99.90;;;;;;5071588;28;20040;-69
2022/12/31 12:32:23;;;;;;;4.22;0.82;;;17.60;99.90;;;;;;5071998;28;20020;-70
2022/12/31 12:34:50;;;;;;;2.85;0.95;;;17.60;99.90;;;;;;5076939;28;20047;-70
2022/12/31 12:37:35;;;;;;;1.95;0.88;;;17.60;99.90;;;;;;5076497;28;20051;-70
2022/12/31 12:40:16;;;;;;;3.65;0.88;;;17.70;99.90;;;;;;5076840;28;20063;-70
2022/12/31 12:42:46;;;;;;;;;;;17.70;99.90;;;;;;5076021;28;20024;-70
2022/12/31 12:45:40;;;;;;;3.50;1.02;;;17.60;99.90;;;;;;5075926;28;19994;-70
2022/12/31 12:48:17;;;;;;;1.80;0.60;;;17.60;99.90;;;;;;5069642;28;20123;-70
2022/12/31 12:50:46;;;;;;;2.80;0.60;;;17.70;99.90;;;;;;5075539;28;20430;-70
2022/12/31 12:53:39;;;;;;;2.53;0.70;;;17.70;99.90;;;;;;5075707;28;20067;-70
2022/12/31 12:56:14;;;;;;;1.52;0.47;;;17.80;99.90;;;;;;5076215;28;20021;-70
2022/12/31 12:59:18;;;;;;;3.13;0.70;;;17.80;99.90;;;;;;5075188;28;20047;-70
2022/12/31 13:02:28;;;;;;;4.18;0.90;;;17.90;99.90;;;;;;5075895;28;20040;-70
2022/12/31 13:05:08;;;;;;;2.03;0.60;;;17.90;99.90;;;;;;5075601;28;20119;-70
2022/12/31 13:08:14;;;;;;;0.85;0.60;;;18.00;99.90;;;;;;5075040;28;20066;-70
2022/12/31 13:11:14;;;;;;;2.15;0.70;;;18.00;99.90;;;;;;5045234;28;20036;-70
2022/12/31 13:13:54;;;;;;;2.05;0.50;;;18.10;99.90;;;;;;5075578;28;20024;-70
2022/12/31 13:16:55;;;;;;;2.47;0.80;;;18.00;99.90;;;;;;5074962;28;20028;-70
2022/12/31 13:19:51;;;;;;;5.53;0.75;;;18.00;99.90;;;;;;5074745;28;20025;-70
2022/12/31 13:22:21;;;;;;;5.82;0.82;;;17.90;99.90;;;;;;5075921;28;20480;-70
2022/12/31 13:25:04;;;;;;;2.45;0.68;;;17.80;99.90;;;;;;5075884;28;20055;-70
2022/12/31 13:27:38;;;;;;;5.05;1.17;;;17.80;99.90;;;;;;5075997;28;20029;-70
2022/12/31 13:30:17;;;;;;;2.92;0.77;;;17.90;99.90;;;;;;5075406;28;20115;-70
2022/12/31 13:32:47;;;;;;;2.05;0.88;;;17.90;99.90;;;;;;5075437;28;20115;-70
2022/12/31 13:35:29;;;;;;;2.88;0.60;;;17.90;99.90;;;;;;5074753;28;20029;-70